Flight Track Log - Related Links

Times and Time Zones

All times are in EDT time to prevent confusion due to time zone crossing. See the N741FX flight status page for this flight to view local times or setup timezone preferences in your user account.

Time Position Orientation Groundspeed Altitude Reporting Facility
EDT Latitude Longitude Course Direction KTS MPH feet Rate Location/Type
Wed 07:42:00 AM 32.0167 -101.9976 90° East  Level FlightAware Approximate
Wed 07:43:00 AM 32.0199 -101.9423 81° East  Level FlightAware Approximate
Wed 07:44:00 AM 32.0273 -101.8873 81° East  Level FlightAware Approximate
Wed 07:45:00 AM 32.0346 -101.8324 81° East  Level FlightAware Approximate
Wed 07:46:00 AM 32.0411 -101.7836 81° East  Level FlightAware Approximate
Wed 07:46:57 AM 31.9686 -101.7061 90° East 177 204 7,000  Level Fort Worth Center
Wed 07:47:00 AM 32.0476 -101.7349 81° East  Level FlightAware Approximate
Wed 07:47:57 AM 31.9747 -101.6500 83° East 177 204 7,100  Level Fort Worth Center
Wed 07:48:00 AM 32.0531 -101.6860 83° East  Level FlightAware Approximate
Wed 07:48:57 AM 31.9828 -101.5964 80° East 172 198 7,100  Level Fort Worth Center
Wed 07:49:00 AM 32.0580 -101.6370 83° East  Level FlightAware Approximate
Wed 07:49:57 AM 31.9908 -101.5431 80° East 172 198 7,100  Level Fort Worth Center
Wed 07:50:00 AM 32.0629 -101.5880 83° East  Level FlightAware Approximate
Wed 07:50:57 AM 31.9989 -101.4869 80° East 167 192 7,000  Level Fort Worth Center
Wed 07:51:00 AM 32.0667 -101.5389 90° East  Level FlightAware Approximate
Wed 07:51:57 AM 32.0069 -101.4311 80° East 167 192 7,000  Level Fort Worth Center
Wed 07:52:00 AM 32.0667 -101.4895 90° East  Level FlightAware Approximate
Wed 07:52:57 AM 32.0150 -101.3775 80° East 167 192 7,100  Level Fort Worth Center
Wed 07:53:57 AM 32.0231 -101.3214 80° East 167 192 7,100  Level Fort Worth Center
Wed 07:54:57 AM 32.0289 -101.2678 83° East 167 192 7,100  Level Fort Worth Center
Wed 07:55:57 AM 32.0347 -101.2117 83° East 162 186 7,100  Level Fort Worth Center
Wed 07:56:57 AM 32.0425 -101.1581 80° East 162 186 7,100  Level Fort Worth Center
Wed 07:57:57 AM 32.0525 -101.1069 77° East 162 186 7,100  Level Fort Worth Center
Wed 07:58:57 AM 32.0583 -101.0533 83° East 162 186 7,100  Level Fort Worth Center
Wed 07:59:57 AM 32.0639 -100.9972 83° East 162 186 7,100  Level Fort Worth Center
Wed 08:00:57 AM 32.0717 -100.9461 80° East 162 186 7,100  Level Fort Worth Center
Wed 08:01:57 AM 32.0794 -100.8972 79° East 155 178 7,100  Level Fort Worth Center
Wed 08:02:57 AM 32.0872 -100.8364 81° East 162 186 7,100  Level Fort Worth Center
Wed 08:03:57 AM 32.0928 -100.7875 82° East 162 186 7,100  Level Fort Worth Center
Wed 08:04:57 AM 32.1028 -100.7267 79° East 157 181 7,100  Level Fort Worth Center
Wed 08:05:57 AM 32.1083 -100.6778 82° East 164 189 7,100  Level Fort Worth Center
Wed 08:12:14 AM 32.1550 -100.3320 82° East 166 191  Descending FlightAware ADS-B
Wed 08:12:35 AM 32.1580 -100.3130 79° East 165 190 415 Level FlightAware ADS-B
Wed 08:12:48 AM 32.1590 -100.3010 84° East 164 189 423 Level FlightAware ADS-B
Wed 08:13:10 AM 32.1620 -100.2810 80° East 165 190 429 Level FlightAware ADS-B
Wed 08:13:30 AM 32.1640 -100.2640 82° East 164 189 439 Level FlightAware ADS-B
Wed 08:14:06 AM 32.1690 -100.2310 80° East 164 189 448 Level FlightAware ADS-B
Wed 08:14:25 AM 32.1700 -100.2160 85° East 165 190 466 Level FlightAware ADS-B
Wed 08:14:44 AM 32.1730 -100.1980 79° East 166 191 475 Level FlightAware ADS-B
Wed 08:15:23 AM 32.1770 -100.1670 81° East 165 190 486 Level FlightAware ADS-B
Wed 08:16:55 AM 32.1880 -100.0800 81° East 167 192 508 Level FlightAware ADS-B
Wed 08:17:23 AM 32.1910 -100.0590 80° East 167 192 571 Level FlightAware ADS-B
Wed 08:17:51 AM 32.1950 -100.0340 79° East 167 192 593 Level FlightAware ADS-B
Wed 08:18:26 AM 32.1990 -100.0010 82° East 166 191 617 Level FlightAware ADS-B
Wed 08:18:40 AM 32.2010 -99.9860 81° East 166 191 650 Level FlightAware ADS-B
Wed 08:19:15 AM 32.2040 -99.9590 83° East 166 191 665 Level FlightAware ADS-B
Wed 08:19:30 AM 32.2070 -99.9410 79° East 163 188 703 Level FlightAware ADS-B
Wed 08:20:04 AM 32.2100 -99.9110 83° East 164 189 721 Level FlightAware ADS-B
Wed 08:20:23 AM 32.2120 -99.8950 82° East 164 189 765 Level FlightAware ADS-B
Wed 08:20:36 AM 32.2130 -99.8830 84° East 164 189 792 Level FlightAware ADS-B
Wed 08:20:56 AM 32.2160 -99.8650 79° East 165 190 811 Level FlightAware ADS-B
Wed 08:21:31 AM 32.2200 -99.8370 80° East 165 190 844 Level FlightAware ADS-B
Wed 08:21:46 AM 32.2210 -99.8200 86° East 164 189 906 Level FlightAware ADS-B
Wed 08:22:15 AM 32.2240 -99.8000 80° East 164 189 936 Level FlightAware ADS-B
Wed 08:22:38 AM 32.2270 -99.7750 82° East 163 188 1,000 Level FlightAware ADS-B
Wed 08:22:48 AM 32.2280 -99.7650 83° East 163 188 1,057 Level FlightAware ADS-B
Wed 08:23:10 AM 32.2310 -99.7460 79° East 165 190 1,084 Level FlightAware ADS-B
Wed 08:23:32 AM 32.2340 -99.7260 80° East 164 189 1,148 Level FlightAware ADS-B
Wed 08:23:49 AM 32.2350 -99.7110 85° East 164 189 1,221 Level FlightAware ADS-B
Wed 08:24:28 AM 32.2400 -99.6810 79° East 164 189 1,283 Level FlightAware ADS-B
Wed 08:24:51 AM 32.2420 -99.6570 84° East 163 188 1,454 Level FlightAware ADS-B
Wed 08:25:28 AM 32.2460 -99.6280 81° East 162 186 1,578 Level FlightAware ADS-B
Wed 08:25:53 AM 32.2490 -99.6020 82° East 163 188 1,828 Level FlightAware ADS-B
Wed 08:26:14 AM 32.2520 -99.5820 80° East 164 189 2,048 Level FlightAware ADS-B
Wed 08:26:47 AM 32.2550 -99.5540 83° East 164 189 2,278 Level FlightAware ADS-B
Wed 08:26:57 AM 32.2560 -99.5450 83° East 164 189 2,766 Level FlightAware ADS-B
Wed 08:27:25 AM 32.2590 -99.5240 80° East 164 189 2,958 Level FlightAware ADS-B
Wed 08:29:21 AM 32.2703 -99.4231 81° East 166 191 7,100 2,420 Climbing Fort Worth Center
Wed 08:30:00 AM 32.2775 -99.3924 81° East  Level FlightAware Approximate
Wed 08:30:21 AM 32.2775 -99.3694 81° East 179 206 7,100  Level Fort Worth Center
Wed 08:31:00 AM 32.2846 -99.3414 81° East  Level FlightAware Approximate
Wed 08:31:21 AM 32.2844 -99.3131 82° East 179 206 7,100  Level Fort Worth Center
Wed 08:32:00 AM 32.2918 -99.2905 81° East  Level FlightAware Approximate
Wed 08:32:21 AM 32.2875 -99.2614 86° East 179 206 7,100  Level Fort Worth Center
Wed 08:33:00 AM 32.2988 -99.2395 81° East  Level FlightAware Approximate
Wed 08:33:21 AM 32.2964 -99.2075 79° East 174 200 7,100  Level Fort Worth Center
Wed 08:34:21 AM 32.3036 -99.1536 81° East 169 194 7,100  Level Fort Worth Center
Wed 08:35:21 AM 32.3083 -99.0972 84° East 169 194 7,100  Level Fort Worth Center
Wed 08:36:21 AM 32.3175 -99.0433 79° East 164 189 7,100  Level Fort Worth Center
Wed 08:37:21 AM 32.3225 -98.9892 84° East 159 183 7,100  Level Fort Worth Center
Wed 08:38:21 AM 32.3314 -98.9353 79° East 159 183 7,100  Level Fort Worth Center
Wed 08:39:21 AM 32.3361 -98.8814 84° East 159 183 7,100  Level Fort Worth Center
Wed 08:40:21 AM 32.3431 -98.8272 81° East 159 183 7,100  Level Fort Worth Center
Wed 08:41:21 AM 32.3478 -98.7733 84° East 159 183 7,100  Level Fort Worth Center
Wed 08:42:21 AM 32.3569 -98.7119 80° East 159 183 7,100  Level Fort Worth Center
Wed 08:43:21 AM 32.3658 -98.6581 79° East 159 183 7,100  Level Fort Worth Center
Wed 08:44:21 AM 32.3725 -98.6014 82° East 159 183 7,100  Level Fort Worth Center
Wed 08:45:21 AM 32.3772 -98.5475 84° East 159 183 7,100 -180 Level Fort Worth Center
Wed 08:51:10 AM 32.4140 -98.2160 84° East 179 206 -187 Descending FlightAware ADS-B
Wed 08:51:30 AM 32.4160 -98.1980 82° East 179 206 108 Level FlightAware ADS-B
Wed 08:51:59 AM 32.4190 -98.1690 83° East 179 206 110 Level FlightAware ADS-B
Wed 08:52:26 AM 32.4210 -98.1470 84° East 179 206 112 Level FlightAware ADS-B
Wed 08:52:49 AM 32.4250 -98.1210 80° East 178 205 115 Level FlightAware ADS-B
Wed 08:53:02 AM 32.4260 -98.1070 85° East 177 204 117 Level FlightAware ADS-B
Wed 08:53:28 AM 32.4290 -98.0830 82° East 176 203 119 Level FlightAware ADS-B
Wed 08:53:52 AM 32.4320 -98.0600 81° East 174 200 121 Level FlightAware ADS-B
Wed 08:54:12 AM 32.4340 -98.0400 83° East 174 200 124 Level FlightAware ADS-B
Wed 08:54:30 AM 32.4360 -98.0230 82° East 175 201 127 Level FlightAware ADS-B
Wed 08:54:50 AM 32.4380 -98.0040 83° East 174 200 129 Level FlightAware ADS-B
Wed 08:55:10 AM 32.4400 -97.9860 82° East 170 196 131 Level FlightAware ADS-B
Wed 08:55:30 AM 32.4420 -97.9680 82° East 168 193 134 Level FlightAware ADS-B
Wed 08:55:50 AM 32.4440 -97.9490 83° East 167 192 137 Level FlightAware ADS-B
Wed 08:56:14 AM 32.4460 -97.9280 84° East 167 192 140 Level FlightAware ADS-B
Wed 08:56:30 AM 32.4480 -97.9130 81° East 167 192 143 Level FlightAware ADS-B
Wed 08:56:54 AM 32.4500 -97.8920 84° East 167 192 146 Level FlightAware ADS-B
Wed 08:57:15 AM 32.4530 -97.8730 79° East 167 192 150 Level FlightAware ADS-B
Wed 08:57:38 AM 32.4550 -97.8510 84° East 166 191 153 Level FlightAware ADS-B
Wed 08:57:58 AM 32.4570 -97.8330 82° East 166 191 158 Level FlightAware ADS-B
Wed 08:58:12 AM 32.4620 -97.8220 62° Northeast 168 193 162 Level FlightAware ADS-B
Wed 08:58:20 AM 32.4660 -97.8160 52° Northeast 171 197 164 Level FlightAware ADS-B
Wed 08:58:36 AM 32.4770 -97.8080 32° Northeast 174 200 166 Level FlightAware ADS-B
Wed 08:58:58 AM 32.4910 -97.7960 36° Northeast 170 196 169 Level FlightAware ADS-B
Wed 08:59:23 AM 32.5060 -97.7810 40° Northeast 172 198 174 Level FlightAware ADS-B
Wed 08:59:44 AM 32.5190 -97.7680 40° Northeast 181 208 180 Level FlightAware ADS-B
Wed 09:00:08 AM 32.5350 -97.7520 40° Northeast 186 214 186 Level FlightAware ADS-B
Wed 09:00:32 AM 32.5510 -97.7360 40° Northeast 186 214 192 Level FlightAware ADS-B
Wed 09:00:52 AM 32.5650 -97.7230 38° Northeast 187 215 199 Level FlightAware ADS-B
Wed 09:01:14 AM 32.5800 -97.7110 34° Northeast 185 213 205 Level FlightAware ADS-B
Wed 09:01:38 AM 32.5950 -97.6960 40° Northeast 173 199 213 Level FlightAware ADS-B
Wed 09:01:50 AM 32.6020 -97.6890 40° Northeast 172 198 221 Level FlightAware ADS-B
Wed 09:02:10 AM 32.6160 -97.6770 36° Northeast 172 198 226 Level FlightAware ADS-B
Wed 09:02:30 AM 32.6280 -97.6650 40° Northeast 171 197 234 Level FlightAware ADS-B
Wed 09:02:55 AM 32.6440 -97.6510 36° Northeast 172 198 242 Level FlightAware ADS-B
Wed 09:03:14 AM 32.6560 -97.6400 38° Northeast 171 197 254 Level FlightAware ADS-B
Wed 09:03:26 AM 32.6630 -97.6330 40° Northeast 171 197 263 Level FlightAware ADS-B
Wed 09:03:51 AM 32.6780 -97.6180 40° Northeast 172 198 270 Level FlightAware ADS-B
Wed 09:04:12 AM 32.6920 -97.6050 38° Northeast 171 197 284 Level FlightAware ADS-B
Wed 09:04:32 AM 32.7040 -97.5930 40° Northeast 171 197 298 Level FlightAware ADS-B
Wed 09:04:44 AM 32.7120 -97.5860 36° Northeast 172 198 312 Level FlightAware ADS-B
Wed 09:05:08 AM 32.7260 -97.5730 38° Northeast 172 198 321 Level FlightAware ADS-B
Wed 09:05:28 AM 32.7380 -97.5600 42° Northeast 171 197 341 Level FlightAware ADS-B
Wed 09:05:48 AM 32.7510 -97.5490 35° Northeast 172 198 360 Level FlightAware ADS-B
Wed 09:06:08 AM 32.7640 -97.5370 38° Northeast 171 197 380 Level FlightAware ADS-B
Wed 09:06:28 AM 32.7760 -97.5240 42° Northeast 173 199 404 Level FlightAware ADS-B
Wed 09:06:52 AM 32.7910 -97.5100 38° Northeast 183 211 430 Level FlightAware ADS-B
Wed 09:07:12 AM 32.8050 -97.4970 38° Northeast 187 215 466 Level FlightAware ADS-B
Wed 09:07:32 AM 32.8180 -97.4830 42° Northeast 189 217 502 Level FlightAware ADS-B
Wed 09:07:54 AM 32.8330 -97.4700 36° Northeast 187 215 543 Level FlightAware ADS-B
Wed 09:08:02 AM 32.8390 -97.4680 16° North 184 212 597 Level FlightAware ADS-B
Wed 09:08:22 AM 32.8560 -97.4630 14° North 177 204 620 Level FlightAware ADS-B
Wed 09:08:42 AM 32.8720 -97.4600 North 174 200 684 Level FlightAware ADS-B
Wed 09:08:59 AM 32.8850 -97.4590 North 173 199 763 Level FlightAware ADS-B
Wed 09:09:12 AM 32.8960 -97.4570 North 172 198 846 Level FlightAware ADS-B
Wed 09:09:32 AM 32.9120 -97.4540 North 172 198 923 Level FlightAware ADS-B
Wed 09:09:52 AM 32.9280 -97.4500 12° North 173 199 1,073 Level FlightAware ADS-B
Wed 09:10:12 AM 32.9440 -97.4470 North 174 200 1,282 Level FlightAware ADS-B
Wed 09:10:33 AM 32.9590 -97.4410 19° North 173 199 1,590 Level FlightAware ADS-B
Wed 09:10:54 AM 32.9760 -97.4320 24° Northeast 174 200 2,129 Level FlightAware ADS-B
Wed 09:10:58 AM 32.9780 -97.4300 40° Northeast 176 203 3,220 Level FlightAware ADS-B
Wed 09:11:35 AM 33.0050 -97.4130 28° Northeast 171 197 2,200 2,640 Climbing FlightAware ADS-B
Wed 09:11:48 AM 33.0130 -97.4060 36° Northeast 169 194 2,200  Level FlightAware ADS-B
Wed 09:11:56 AM 33.0180 -97.3990 50° Northeast 171 197 2,200  Level FlightAware ADS-B
Wed 09:12:06 AM 33.0210 -97.3910 66° East 169 194 2,200 -188 Level FlightAware ADS-B
Wed 09:12:28 AM 33.0270 -97.3720 69° East 178 205 2,100 -400 Descending FlightAware ADS-B
Wed 09:12:36 AM 33.0290 -97.3650 71° East 179 206 2,000 -600 Descending FlightAware ADS-B
Wed 09:12:58 AM 33.0310 -97.3420 84° East 181 208 1,800 -240 Descending FlightAware ADS-B
Wed 09:13:26 AM 33.0330 -97.3180 84° East 181 208 1,800  Level FlightAware ADS-B
Wed 09:20:00 AM 32.9833 -97.3167 112° Southeast  Level FlightAware Approximate
Wed 09:21:00 AM 32.9876 -97.3188 112° Southeast  Level Estimated

Login

Don't have an account? Register now (free) for customized features, flight alerts, and more!